Time;durP1;ratioP1;P1;durP2;ratioP2;P2;SDS_P1;SDS_P2;PMS_P1;PMS_P2;Temp;Humidity;BMP_temperature;BMP_pressure;BME280_temperature;BME280_humidity;BME280_pressure;Samples;Min_cycle;Max_cycle;Signal;HPM_P1;HPM_P2
2023/03/23 00:00:55;;;;;;;3.10;2.30;;;12.80;99.90;;;;;;6208153;22;20466;-74
2023/03/23 00:03:22;;;;;;;4.93;1.77;;;12.80;99.90;;;;;;6086680;23;20827;-80
2023/03/23 00:05:51;;;;;;;3.00;2.00;;;12.80;99.80;;;;;;6134859;23;20388;-78
2023/03/23 00:08:20;;;;;;;3.07;2.43;;;12.90;99.90;;;;;;6134394;23;20419;-78
2023/03/23 00:10:49;;;;;;;2.80;1.87;;;12.90;99.80;;;;;;6109804;23;20392;-80
2023/03/23 00:13:19;;;;;;;3.00;1.97;;;13.00;99.60;;;;;;6087080;23;20473;-79
2023/03/23 00:15:45;;;;;;;5.57;1.80;;;13.00;99.30;;;;;;6134937;23;20364;-79
2023/03/23 00:18:20;;;;;;;3.23;1.70;;;13.00;99.50;;;;;;6135915;23;20400;-79
2023/03/23 00:20:51;;;;;;;2.80;2.30;;;13.00;99.50;;;;;;6085753;23;20407;-78
2023/03/23 00:23:19;;;;;;;4.03;1.70;;;13.00;99.60;;;;;;6138597;23;20380;-78
2023/03/23 00:25:49;;;;;;;2.63;1.70;;;13.00;99.50;;;;;;6108515;23;20451;-80
2023/03/23 00:28:16;;;;;;;5.10;1.50;;;12.90;99.60;;;;;;6084364;23;20449;-80
2023/03/23 00:30:44;;;;;;;2.60;1.60;;;13.00;99.60;;;;;;6109866;23;20392;-80
2023/03/23 00:33:12;;;;;;;2.23;1.60;;;13.00;99.30;;;;;;6109516;23;20399;-79
2023/03/23 00:35:40;;;;;;;2.80;1.60;;;13.00;99.50;;;;;;6135009;23;20705;-78
2023/03/23 00:38:06;;;;;;;2.50;1.83;;;12.90;99.80;;;;;;6107758;23;20661;-80
2023/03/23 00:40:35;;;;;;;1.53;1.40;;;12.90;99.90;;;;;;6108885;23;20417;-79
2023/03/23 00:43:03;;;;;;;2.40;1.87;;;12.90;99.90;;;;;;6108559;23;20195;-78
2023/03/23 00:45:29;;;;;;;3.33;1.87;;;12.90;99.90;;;;;;6108490;23;20421;-78
2023/03/23 00:47:56;;;;;;;1.77;1.57;;;12.90;99.80;;;;;;6084862;23;20403;-78
2023/03/23 00:50:23;;;;;;;1.97;1.43;;;12.90;99.70;;;;;;6110229;23;20158;-79
2023/03/23 00:52:52;;;;;;;2.80;1.60;;;13.00;99.80;;;;;;6109212;23;20368;-78
2023/03/23 00:55:18;;;;;;;2.07;1.30;;;12.90;99.90;;;;;;6108825;23;20384;-80
2023/03/23 00:57:43;;;;;;;2.17;1.50;;;12.90;99.90;;;;;;6110013;23;20369;-78
2023/03/23 01:00:10;;;;;;;2.63;1.77;;;12.80;99.90;;;;;;6114617;23;20139;-78
2023/03/23 01:02:36;;;;;;;1.80;1.40;;;12.90;99.90;;;;;;6153650;23;20186;-77
2023/03/23 01:05:04;;;;;;;1.83;1.33;;;12.80;99.90;;;;;;6173634;23;20365;-78
2023/03/23 01:07:31;;;;;;;3.03;1.77;;;12.80;99.90;;;;;;6165333;23;20372;-79
2023/03/23 01:09:57;;;;;;;1.50;1.37;;;12.70;99.90;;;;;;6162195;23;20398;-80
2023/03/23 01:12:24;;;;;;;1.63;1.43;;;12.60;99.90;;;;;;6168103;23;20369;-79
2023/03/23 01:14:51;;;;;;;1.50;1.27;;;12.60;99.90;;;;;;6197481;23;20381;-78
2023/03/23 01:17:18;;;;;;;1.83;1.20;;;12.60;99.90;;;;;;6173004;23;20386;-79
2023/03/23 01:19:44;;;;;;;1.43;1.33;;;12.60;99.90;;;;;;6169083;23;20394;-77
2023/03/23 01:22:10;;;;;;;3.10;1.60;;;12.60;99.90;;;;;;6173853;23;20370;-78
2023/03/23 01:24:35;;;;;;;2.27;1.70;;;12.60;99.90;;;;;;6195976;23;20227;-77
2023/03/23 01:27:06;;;;;;;2.73;1.80;;;12.70;99.90;;;;;;6195679;23;20222;-79
2023/03/23 01:29:33;;;;;;;2.53;1.50;;;12.70;99.90;;;;;;6163607;23;20681;-78
2023/03/23 01:31:59;;;;;;;3.33;2.10;;;12.70;99.90;;;;;;6162655;23;20433;-80
2023/03/23 01:34:25;;;;;;;3.47;1.57;;;12.80;99.90;;;;;;6162134;23;20457;-78
2023/03/23 01:36:51;;;;;;;2.80;1.90;;;12.80;99.90;;;;;;6138247;23;20144;-78
2023/03/23 01:39:16;;;;;;;3.73;1.90;;;12.80;99.90;;;;;;6137876;23;20167;-78
2023/03/23 01:41:42;;;;;;;1.60;1.27;;;12.90;99.90;;;;;;6138116;23;20223;-79
2023/03/23 01:44:17;;;;;;;2.20;1.20;;;12.90;99.90;;;;;;6162224;23;20151;-79
2023/03/23 01:46:54;;;;;;;1.93;1.63;;;12.80;99.90;;;;;;6139089;23;20647;-79
2023/03/23 01:49:32;;;;;;;6.20;2.20;;;12.70;99.90;;;;;;6135945;23;20428;-78
2023/03/23 01:52:02;;;;;;;4.20;2.03;;;12.60;99.90;;;;;;6161717;23;20376;-78
2023/03/23 01:54:29;;;;;;;6.47;2.27;;;12.40;99.90;;;;;;6160345;23;20351;-79
2023/03/23 01:57:06;;;;;;;2.90;2.07;;;12.20;99.90;;;;;;6161928;23;20348;-79
2023/03/23 01:59:34;;;;;;;5.57;1.80;;;12.00;99.90;;;;;;6160659;23;20404;-77
2023/03/23 02:02:15;;;;;;;4.33;2.30;;;11.90;99.90;;;;;;6163316;23;20433;-78
2023/03/23 02:04:41;;;;;;;2.80;1.73;;;11.70;99.90;;;;;;6161166;23;20661;-79
2023/03/23 02:07:09;;;;;;;3.17;1.90;;;11.70;99.90;;;;;;6186109;23;20729;-79
2023/03/23 02:09:35;;;;;;;2.93;2.20;;;11.60;99.90;;;;;;6162767;23;20695;-77
2023/03/23 02:12:01;;;;;;;4.00;2.00;;;11.50;99.90;;;;;;6163515;23;20456;-80
2023/03/23 02:14:29;;;;;;;3.20;2.20;;;11.50;99.90;;;;;;6162246;23;20375;-78
2023/03/23 02:16:59;;;;;;;3.30;2.27;;;11.40;99.90;;;;;;6164154;23;20375;-78
2023/03/23 02:19:49;;;;;;;3.17;2.03;;;11.40;99.90;;;;;;6187713;23;20816;-79
2023/03/23 02:22:41;;;;;;;3.17;2.00;;;11.40;99.90;;;;;;6136626;23;20680;-77
2023/03/23 02:25:35;;;;;;;2.30;2.10;;;11.30;99.90;;;;;;6161664;23;20394;-78
2023/03/23 02:28:20;;;;;;;4.57;2.60;;;11.30;99.90;;;;;;6161534;23;20430;-81
2023/03/23 02:31:03;;;;;;;5.80;2.00;;;11.30;99.90;;;;;;6137123;23;20398;-79
2023/03/23 02:33:43;;;;;;;2.87;2.03;;;11.30;99.90;;;;;;6162987;23;20355;-79
2023/03/23 02:36:21;;;;;;;1.87;1.53;;;11.20;99.90;;;;;;6163361;23;20366;-80
2023/03/23 02:39:08;;;;;;;3.47;2.37;;;11.20;99.90;;;;;;6161918;23;20410;-79
2023/03/23 02:41:43;;;;;;;2.63;2.00;;;11.10;99.90;;;;;;6162617;23;20375;-80
2023/03/23 02:44:10;;;;;;;3.00;2.70;;;11.10;99.90;;;;;;6161691;23;20670;-79
2023/03/23 02:46:37;;;;;;;2.27;1.47;;;11.10;99.90;;;;;;6161623;23;20364;-78
2023/03/23 02:49:06;;;;;;;2.03;1.77;;;11.10;99.90;;;;;;6163043;23;20417;-78
2023/03/23 02:51:33;;;;;;;3.40;1.80;;;11.00;99.90;;;;;;6163767;23;20371;-77
2023/03/23 02:54:00;;;;;;;2.63;2.30;;;11.00;99.90;;;;;;6162113;23;20371;-78
2023/03/23 02:56:27;;;;;;;3.87;2.03;;;11.00;99.90;;;;;;6162004;23;20386;-78
2023/03/23 02:58:54;;;;;;;3.20;2.33;;;11.00;99.90;;;;;;6164256;23;20398;-79
2023/03/23 03:01:26;;;;;;;3.13;1.93;;;11.00;99.90;;;;;;6158961;23;20424;-79
2023/03/23 03:03:54;;;;;;;3.27;1.53;;;11.00;99.90;;;;;;6108254;23;20391;-79
2023/03/23 03:06:28;;;;;;;4.17;1.90;;;11.00;99.90;;;;;;6133847;23;20376;-80
2023/03/23 03:09:12;;;;;;;3.10;1.90;;;11.00;99.90;;;;;;6134105;23;20431;-77
2023/03/23 03:11:42;;;;;;;4.07;2.33;;;11.00;99.90;;;;;;6107850;23;20380;-79
2023/03/23 03:14:16;;;;;;;2.00;1.70;;;10.90;99.90;;;;;;6108166;23;20455;-79
2023/03/23 03:16:52;;;;;;;3.77;1.93;;;11.00;99.90;;;;;;6108027;23;20824;-78
2023/03/23 03:19:35;;;;;;;2.33;1.60;;;11.00;99.90;;;;;;6083542;23;20407;-77
2023/03/23 03:22:02;;;;;;;2.10;1.33;;;11.00;99.90;;;;;;6112718;23;20394;-78
2023/03/23 03:24:37;;;;;;;1.63;1.37;;;11.00;99.90;;;;;;6093376;23;20375;-79
2023/03/23 03:27:09;;;;;;;2.67;1.23;;;11.00;99.90;;;;;;6136584;23;20372;-79
2023/03/23 03:29:50;;;;;;;1.80;1.53;;;11.10;99.90;;;;;;6107740;23;20420;-77
2023/03/23 03:32:22;;;;;;;1.53;1.30;;;11.10;99.90;;;;;;6108302;23;20395;-79
2023/03/23 03:34:50;;;;;;;3.67;1.83;;;11.20;99.90;;;;;;6106792;23;20386;-79
2023/03/23 03:37:18;;;;;;;2.77;1.90;;;11.20;99.90;;;;;;6116395;23;20405;-79
2023/03/23 03:39:46;;;;;;;3.90;1.63;;;11.40;99.90;;;;;;6107954;23;20876;-80
2023/03/23 03:42:11;;;;;;;2.97;1.93;;;11.50;99.90;;;;;;6107702;23;20392;-77
2023/03/23 03:44:37;;;;;;;1.80;1.50;;;11.50;99.90;;;;;;6106977;23;20375;-77
2023/03/23 03:47:03;;;;;;;2.70;2.10;;;11.60;99.90;;;;;;6133393;23;20136;-79
2023/03/23 03:49:29;;;;;;;2.20;1.57;;;11.60;99.90;;;;;;6108643;23;20222;-79
2023/03/23 03:51:55;;;;;;;2.40;1.70;;;11.70;99.90;;;;;;6107999;23;20368;-78
2023/03/23 03:54:26;;;;;;;2.33;1.67;;;11.70;99.90;;;;;;6107709;23;20369;-80
2023/03/23 03:56:57;;;;;;;3.03;1.87;;;11.70;99.90;;;;;;6083393;23;20693;-77
2023/03/23 03:59:41;;;;;;;2.30;1.87;;;11.70;99.90;;;;;;6110583;23;20234;-78
2023/03/23 04:02:41;;;;;;;1.50;1.27;;;11.70;99.90;;;;;;6133794;23;20423;-78
2023/03/23 04:05:08;;;;;;;1.83;1.30;;;11.70;99.90;;;;;;6083771;23;20400;-79
2023/03/23 04:07:37;;;;;;;2.37;1.40;;;11.70;99.90;;;;;;6107264;23;20383;-78
2023/03/23 04:10:08;;;;;;;1.33;1.10;;;11.70;99.90;;;;;;6108481;23;20377;-78
2023/03/23 04:12:36;;;;;;;1.40;1.10;;;11.70;99.90;;;;;;6107702;23;20487;-76
2023/03/23 04:15:40;;;;;;;3.17;1.23;;;11.70;99.90;;;;;;6133138;23;20900;-78
2023/03/23 04:18:06;;;;;;;1.30;1.20;;;11.70;99.90;;;;;;6083703;23;20677;-78
2023/03/23 04:20:34;;;;;;;1.83;1.13;;;11.70;99.90;;;;;;6083157;23;20443;-79
2023/03/23 04:23:01;;;;;;;1.80;1.40;;;11.70;99.90;;;;;;6083442;23;20634;-79
2023/03/23 04:25:28;;;;;;;1.50;1.10;;;11.70;99.90;;;;;;6107629;23;20433;-79
2023/03/23 04:27:54;;;;;;;1.80;1.20;;;11.70;99.90;;;;;;6107062;23;20408;-79
2023/03/23 04:30:30;;;;;;;1.77;1.20;;;11.70;99.90;;;;;;6094254;23;20379;-81
2023/03/23 04:33:14;;;;;;;2.43;1.20;;;11.70;99.90;;;;;;6119159;23;20399;-78
2023/03/23 04:35:45;;;;;;;1.77;1.33;;;11.60;99.90;;;;;;6113613;23;20367;-79
2023/03/23 04:38:32;;;;;;;1.40;1.07;;;11.60;99.90;;;;;;6111332;23;20394;-78
2023/03/23 04:41:02;;;;;;;1.77;1.10;;;11.60;99.90;;;;;;6107985;23;20412;-78
2023/03/23 04:43:52;;;;;;;2.83;1.60;;;11.60;99.90;;;;;;6107341;23;20433;-81
2023/03/23 04:46:28;;;;;;;2.70;1.60;;;11.60;99.90;;;;;;6106851;23;20800;-78
2023/03/23 04:48:54;;;;;;;2.07;1.53;;;11.70;99.90;;;;;;6084708;23;20423;-78
2023/03/23 04:51:31;;;;;;;1.80;1.53;;;11.60;99.90;;;;;;6107950;23;20415;-78
2023/03/23 04:54:03;;;;;;;2.10;1.70;;;11.70;99.90;;;;;;6106924;23;20387;-79
2023/03/23 04:56:31;;;;;;;2.10;1.70;;;11.70;99.90;;;;;;6107661;23;20400;-77
2023/03/23 04:59:02;;;;;;;1.70;1.30;;;11.70;99.90;;;;;;6084446;23;20478;-78
2023/03/23 05:04:40;;;;;;;2.23;1.43;;;11.70;99.90;;;;;;6210175;23;20439;-77
2023/03/23 05:16:13;;;;;;;2.23;1.90;;;11.80;99.90;;;;;;6182502;23;20450;-78
2023/03/23 23:52:14;;;;;;;2.53;2.20;;;13.10;99.90;;;;;;6212309;23;20545;-78
